KSPI/SPI METAR and TAF weather

Enter ICAO airport designator
Station Type Date Time Source
KSPI METAR 2024/07/13 03:52 UTC NOAA

KSPI 130352Z AUTO 12005KT 10SM CLR 23/22 A3012 RMK AO2 SLP194 T02330222


Station Type Date Time Source
KSPI Decoded METAR 2024/07/13 03:52 UTC NOAA

ABRAHAM LINCOLN CAPITAL AIRPORT , IL, United States (KSPI) 39-51N 89-41W 181M
Jul 12, 2024 - 11:52 PM EDT / 2024.07.13 0352 UTC
Wind: from the ESE (120 degrees) at 6 MPH (5 KT):0
Visibility: 10 mile(s):0
Sky conditions: clear
Temperature: 73.9 F (23.3 C)
Dew Point: 72.0 F (22.2 C)
Relative Humidity: 93%
Pressure (altimeter): 30.12 in. Hg (1019 hPa)
ob: KSPI 130352Z AUTO 12005KT 10SM CLR 23/22 A3012 RMK AO2 SLP194 T02330222
cycle: 4

Station Type Date Time Source
KSPI TAF 2024/07/12 18:30 UTC NOAA